Terminal Aerodrome Forecast
Issued by NWS North Platte, NE

Home | Current Version | Previous Version | Graphics & Text | Print | Product List | Glossary On
Versions: 1 2 3 4 5 6 7 8 9 10 11 12
000
FTUS43 KLBF 011700
TAFVTN
TAF
KVTN 011737Z 0118/0218 34013G19KT P6SM SCT025 BKN050
     FM020200 02004KT P6SM SCT120
     FM020600 VRB04KT P6SM BKN120
     FM020900 VRB05KT P6SM VCTS BKN120CB
     FM021300 32007KT P6SM BKN150=

USA.gov is the U.S. government's official web portal to all federal, state and local government web resources and services.